Time;durP1;ratioP1;P1;durP2;ratioP2;P2;SDS_P1;SDS_P2;PMS_P1;PMS_P2;Temp;Humidity;BMP_temperature;BMP_pressure;BME280_temperature;BME280_humidity;BME280_pressure;Samples;Min_cycle;Max_cycle;Signal;HPM_P1;HPM_P2
2023/09/12 00:02:32;;;;;;;5.10;2.13;;;18.70;82.30;;;17.73;73.03;99920.78;10339075;28;98740;-92
2023/09/12 00:07:39;;;;;;;3.30;1.52;;;18.70;82.60;;;17.67;73.32;99922.47;10338064;28;98553;-91
2023/09/12 00:12:42;;;;;;;2.65;1.23;;;18.70;83.30;;;17.58;73.76;99919.25;10308598;28;96658;-91
2023/09/12 00:17:48;;;;;;;2.15;1.20;;;18.50;83.60;;;17.43;74.15;99905.31;10320873;28;97271;-92
2023/09/12 00:22:54;;;;;;;2.08;1.15;;;18.50;84.20;;;17.37;75.19;99906.19;10356004;28;96642;-92
2023/09/12 00:27:58;;;;;;;1.50;1.02;;;18.40;84.30;;;17.35;75.53;99916.34;10356067;28;96610;-92
2023/09/12 00:33:02;;;;;;;1.38;1.00;;;18.30;85.30;;;17.17;76.40;99906.34;10348406;28;97541;-91
2023/09/12 00:38:08;;;;;;;2.50;1.25;;;18.20;86.70;;;17.15;76.66;99907.59;10335020;28;97619;-92
2023/09/12 00:43:12;;;;;;;2.97;1.15;;;18.10;87.60;;;17.22;76.16;99917.28;10340553;28;96802;-92
2023/09/12 00:48:18;;;;;;;1.25;0.95;;;18.20;86.10;;;17.28;75.70;99912.88;10355697;28;97282;-92
2023/09/12 00:53:22;;;;;;;3.30;1.38;;;18.30;85.80;;;17.22;75.83;99897.66;10353820;28;96705;-93
2023/09/12 00:58:26;;;;;;;2.28;1.00;;;18.30;86.40;;;17.23;75.52;99908.16;10355089;28;97712;-92
2023/09/12 01:03:31;;;;;;;2.08;1.10;;;18.20;86.20;;;17.20;75.76;99905.91;10345747;28;97422;-92
2023/09/12 01:08:38;;;;;;;2.88;1.35;;;18.20;86.30;;;17.16;75.76;99904.72;10336346;28;97418;-92
2023/09/12 01:13:41;;;;;;;2.85;1.48;;;18.20;86.10;;;17.19;75.77;99904.25;10338140;28;96777;-91
2023/09/12 01:18:45;;;;;;;4.35;1.50;;;18.20;85.80;;;17.18;75.94;99916.06;10355822;28;96703;-91
2023/09/12 01:24:11;;;;;;;3.08;1.63;;;18.20;86.00;;;17.15;76.16;99908.41;10363728;28;96551;-92
2023/09/12 01:29:16;;;;;;;2.92;1.35;;;18.20;86.40;;;17.04;76.78;99911.81;10362206;28;96683;-92
2023/09/12 01:34:19;;;;;;;2.17;1.25;;;18.10;86.90;;;16.97;77.35;99916.38;10360331;28;98411;-91
2023/09/12 01:39:23;;;;;;;2.88;1.40;;;18.00;87.00;;;16.92;77.77;99906.31;10338547;28;96738;-91
2023/09/12 01:44:28;;;;;;;2.20;1.20;;;17.90;87.70;;;16.90;77.97;99918.28;10344024;28;96761;-92
2023/09/12 01:49:33;;;;;;;2.38;1.23;;;17.80;87.70;;;16.79;77.99;99906.38;10338167;28;96810;-92
2023/09/12 01:54:38;;;;;;;2.45;1.25;;;17.80;87.40;;;16.73;78.22;99916.16;10344565;28;97214;-91
2023/09/12 01:59:42;;;;;;;2.45;1.38;;;17.80;87.90;;;16.73;78.96;99918.81;10361276;28;97673;-91
2023/09/12 02:05:19;;;;;;;2.38;1.35;;;17.70;88.50;;;16.67;79.55;99921.47;10358625;28;98122;-92
2023/09/12 02:10:23;;;;;;;2.92;1.30;;;17.60;89.40;;;16.59;80.02;99922.56;10343464;28;96580;-92
2023/09/12 02:15:27;;;;;;;3.10;1.50;;;17.60;89.50;;;16.51;80.24;99918.28;10302528;28;96649;-91
2023/09/12 02:20:32;;;;;;;2.20;1.33;;;17.50;90.00;;;16.38;80.56;99912.16;10327751;28;96532;-92
2023/09/12 02:25:37;;;;;;;1.92;1.17;;;17.40;90.10;;;16.36;81.11;99914.19;10318305;28;96597;-92
2023/09/12 02:30:40;;;;;;;1.33;0.95;;;17.40;90.30;;;16.35;81.12;99920.59;10271301;28;96559;-91
2023/09/12 02:35:44;;;;;;;2.03;1.30;;;17.30;90.20;;;16.29;81.31;99915.06;10305547;28;96532;-92
2023/09/12 02:40:47;;;;;;;2.95;1.33;;;17.30;90.60;;;16.25;81.72;99903.13;10270120;28;97224;-92
2023/09/12 02:45:51;;;;;;;1.88;1.05;;;17.30;91.00;;;16.20;81.73;99910.97;10296037;28;97404;-93
2023/09/12 02:50:55;;;;;;;1.63;1.10;;;17.20;90.90;;;16.21;82.42;99926.03;10287015;28;97577;-91
2023/09/12 02:55:58;;;;;;;3.15;1.55;;;17.20;91.10;;;16.19;82.50;99924.56;10293240;28;97431;-92
2023/09/12 03:01:03;;;;;;;4.00;1.80;;;17.20;90.90;;;16.17;82.46;99921.28;10304641;28;97580;-92
2023/09/12 03:06:07;;;;;;;4.10;1.88;;;17.20;91.30;;;16.15;83.30;99918.81;10306928;28;96914;-91
2023/09/12 03:11:11;;;;;;;12.55;5.43;;;17.10;91.30;;;16.10;83.25;99923.16;10320991;28;96855;-91
2023/09/12 03:16:15;;;;;;;3.40;1.35;;;17.00;91.70;;;16.02;83.70;99918.88;10356027;28;96723;-92
2023/09/12 03:21:19;;;;;;;2.92;1.38;;;17.10;91.70;;;16.01;83.40;99927.91;10356493;28;96494;-91
2023/09/12 03:26:22;;;;;;;2.55;1.30;;;17.00;91.70;;;16.02;83.98;99926.91;10336222;28;98420;-91
2023/09/12 03:31:26;;;;;;;3.78;1.73;;;17.00;91.90;;;15.94;83.92;99927.09;10372653;28;97348;-92
2023/09/12 03:36:29;;;;;;;3.10;1.35;;;17.00;92.10;;;15.86;84.09;99927.34;10338671;28;96504;-92
2023/09/12 03:41:34;;;;;;;2.17;1.02;;;16.90;92.00;;;15.86;84.50;99936.19;10357859;28;96664;-91
2023/09/12 03:46:38;;;;;;;1.90;1.40;;;16.90;92.70;;;15.82;84.96;99928.78;10343346;28;97275;-91
2023/09/12 03:51:41;;;;;;;1.45;0.95;;;16.80;92.60;;;15.79;85.21;99933.53;10333281;28;98164;-89
2023/09/12 03:56:45;;;;;;;3.47;1.45;;;16.80;92.60;;;15.71;85.37;99919.50;10343473;28;97403;-88
2023/09/12 04:01:49;;;;;;;2.80;1.33;;;16.80;92.80;;;15.72;85.43;99932.72;10344185;28;99169;-89
2023/09/12 04:06:53;;;;;;;1.95;1.27;;;16.80;92.90;;;15.68;85.86;99936.00;10357707;28;97755;-88
2023/09/12 04:11:56;;;;;;;3.28;1.33;;;16.70;93.00;;;15.60;86.07;99947.75;10346866;28;97369;-89
2023/09/12 04:17:00;;;;;;;2.95;1.52;;;16.60;93.40;;;15.43;86.26;99933.94;10323261;28;96620;-88
2023/09/12 04:22:04;;;;;;;2.67;1.80;;;16.50;93.80;;;15.41;86.74;99937.81;10344130;28;96980;-89
2023/09/12 04:27:08;;;;;;;2.65;1.48;;;16.40;93.80;;;15.42;87.08;99952.88;10324305;28;96928;-88
2023/09/12 04:32:11;;;;;;;3.33;1.52;;;16.40;93.90;;;15.37;86.99;99939.28;10344342;28;98286;-88
2023/09/12 04:37:15;;;;;;;5.43;2.83;;;16.50;94.00;;;15.40;87.60;99952.25;10355213;28;96722;-88
2023/09/12 04:42:18;;;;;;;5.05;2.03;;;16.40;94.30;;;15.46;87.86;99954.09;10356410;28;97150;-88
2023/09/12 04:47:23;;;;;;;3.35;1.77;;;16.50;94.20;;;15.49;88.20;99962.56;10336887;28;97360;-87
2023/09/12 04:52:26;;;;;;;2.83;1.60;;;16.50;94.50;;;15.53;88.60;99957.59;10350040;28;96807;-87
2023/09/12 04:57:30;;;;;;;2.25;1.33;;;16.60;94.80;;;15.60;88.90;99968.34;10373973;28;96610;-87
2023/09/12 05:02:34;;;;;;;2.65;1.42;;;16.60;94.80;;;15.69;88.70;99973.31;10332175;28;99513;-87
2023/09/12 05:07:38;;;;;;;3.75;1.85;;;16.70;94.80;;;15.81;88.53;99967.31;10328789;28;98168;-87
2023/09/12 05:12:42;;;;;;;1.90;1.10;;;16.80;94.70;;;15.91;88.49;99975.78;10335701;28;96647;-89
2023/09/12 05:17:46;;;;;;;2.92;1.45;;;17.00;94.80;;;16.08;88.67;99973.50;10336879;28;96674;-89
2023/09/12 05:22:49;;;;;;;3.42;1.42;;;17.10;95.00;;;16.25;88.84;99966.63;10321270;28;98383;-88
2023/09/12 05:27:53;;;;;;;2.55;1.23;;;17.30;94.90;;;16.44;89.29;99975.66;10349440;28;96535;-88
2023/09/12 05:32:57;;;;;;;3.50;1.70;;;17.50;95.10;;;16.64;89.64;99979.09;10365166;28;96651;-88
2023/09/12 05:38:00;;;;;;;3.45;1.80;;;17.60;95.40;;;16.81;89.39;99977.59;10412258;28;96353;-87
2023/09/12 05:43:04;;;;;;;2.17;1.20;;;17.80;95.30;;;17.01;88.94;99982.03;10396765;28;96880;-88
2023/09/12 05:48:09;;;;;;;2.63;1.30;;;18.00;95.10;;;17.22;88.52;99978.22;10377515;28;96752;-87
2023/09/12 05:53:13;;;;;;;2.83;1.30;;;18.20;94.90;;;17.42;87.89;99978.88;10362681;28;98346;-90
2023/09/12 05:58:16;;;;;;;1.42;1.10;;;18.40;94.80;;;17.63;87.30;99978.53;10346069;28;98556;-90
2023/09/12 06:03:21;;;;;;;1.10;0.80;;;18.70;94.70;;;17.82;86.88;99975.91;10340913;28;96774;-90
2023/09/12 06:08:25;;;;;;;2.38;1.30;;;18.90;94.50;;;18.10;86.79;99972.75;10357643;28;97479;-89
2023/09/12 06:13:29;;;;;;;1.55;0.93;;;19.10;94.40;;;18.35;86.30;99978.91;10364814;28;97967;-90
2023/09/12 06:18:34;;;;;;;2.10;1.40;;;19.40;94.20;;;18.61;85.80;99976.94;10359137;28;96578;-89
2023/09/12 06:23:38;;;;;;;3.03;1.48;;;19.60;94.00;;;18.86;84.45;99985.75;10353149;28;97770;-89
2023/09/12 06:28:41;;;;;;;2.70;1.40;;;19.90;93.80;;;19.10;83.73;99988.56;10330498;28;97481;-87
2023/09/12 06:33:46;;;;;;;2.20;1.33;;;20.10;93.50;;;19.34;82.74;99992.97;10357457;28;97208;-87
2023/09/12 06:38:52;;;;;;;3.53;1.65;;;20.40;93.30;;;19.57;81.22;99984.13;10358921;28;97060;-91
2023/09/12 06:43:58;;;;;;;3.58;1.27;;;20.60;93.00;;;19.76;80.89;99991.06;10370749;28;96571;-90
2023/09/12 06:49:02;;;;;;;3.92;1.40;;;20.80;93.00;;;19.93;80.39;99990.41;10341303;28;98517;-88
2023/09/12 06:54:07;;;;;;;1.80;1.08;;;21.00;92.80;;;20.07;79.39;99982.88;10363021;28;97373;-90
2023/09/12 06:59:11;;;;;;;3.25;1.50;;;21.20;92.60;;;20.28;77.44;99985.00;10372184;28;96585;-90
2023/09/12 07:04:14;;;;;;;1.88;1.05;;;21.40;92.40;;;20.44;76.74;99975.31;10352645;28;96833;-90
2023/09/12 07:09:19;;;;;;;1.70;1.25;;;21.60;92.10;;;20.64;74.86;99981.19;10371211;28;96624;-90
2023/09/12 07:14:25;;;;;;;2.22;1.40;;;21.70;91.80;;;20.87;74.50;99995.66;10323765;28;96684;-90
2023/09/12 07:19:29;;;;;;;1.85;1.05;;;22.00;91.50;;;21.07;72.26;99991.47;10349201;28;96814;-90
2023/09/12 07:24:33;;;;;;;3.03;1.02;;;22.20;91.00;;;21.28;70.97;99987.25;10357331;28;96505;-90
2023/09/12 07:29:38;;;;;;;3.47;1.48;;;22.40;90.60;;;21.52;70.76;99987.16;10355918;28;96628;-87
2023/09/12 07:34:48;;;;;;;2.33;1.30;;;22.60;90.30;;;21.80;69.92;99991.69;10337685;28;96883;-89
2023/09/12 07:39:51;;;;;;;1.65;0.98;;;22.90;90.00;;;21.97;69.70;99973.53;10349861;28;97777;-91
2023/09/12 07:44:55;;;;;;;2.10;1.40;;;23.10;89.70;;;22.29;69.33;99986.47;10334686;28;97073;-92
2023/09/12 07:50:00;;;;;;;3.50;2.58;;;23.40;89.20;;;22.54;68.52;99989.50;10349216;28;96644;-91
2023/09/12 07:55:05;;;;;;;5.85;2.65;;;23.60;88.30;;;22.77;67.11;99988.44;10358152;28;97402;-91
2023/09/12 08:00:09;;;;;;;6.03;2.90;;;23.90;87.50;;;23.05;65.84;99986.63;10334005;28;96610;-91
2023/09/12 08:05:14;;;;;;;4.35;2.30;;;24.10;86.80;;;23.20;63.94;99979.44;10317730;28;97433;-91
2023/09/12 08:10:18;;;;;;;7.60;3.25;;;24.30;85.60;;;23.33;63.24;99975.53;10340527;28;96614;-91
2023/09/12 08:15:21;;;;;;;10.63;2.90;;;24.50;84.60;;;23.54;63.19;99971.06;10337749;28;96749;-91
2023/09/12 08:20:25;;;;;;;5.03;2.67;;;24.70;84.20;;;23.84;62.92;99970.53;10345489;28;97348;-90
2023/09/12 08:25:30;;;;;;;4.47;2.90;;;25.00;83.80;;;24.19;62.14;99967.22;10322118;28;97429;-91
2023/09/12 08:30:33;;;;;;;6.28;2.70;;;25.20;83.00;;;24.48;59.67;99975.81;10354998;28;98160;-91
2023/09/12 08:35:37;;;;;;;4.75;2.50;;;25.50;81.90;;;24.71;57.97;99971.00;10355882;28;96765;-91
2023/09/12 08:40:41;;;;;;;7.80;3.10;;;25.80;80.70;;;24.99;56.56;99977.88;10336101;28;98666;-91
2023/09/12 08:45:47;;;;;;;8.48;2.53;;;26.00;79.20;;;25.12;54.76;99968.41;10356082;28;96719;-91
2023/09/12 08:50:53;;;;;;;4.18;2.33;;;26.20;78.50;;;25.30;55.42;99960.56;10354468;28;96581;-91
2023/09/12 08:55:57;;;;;;;4.38;2.78;;;26.40;78.30;;;25.62;55.13;99967.66;10314880;28;98707;-92
2023/09/12 09:01:03;;;;;;;5.43;2.40;;;26.70;77.70;;;25.81;54.03;99960.59;10316586;28;96365;-91
2023/09/12 09:06:10;;;;;;;5.53;2.80;;;26.90;76.90;;;26.03;52.98;99962.16;10338068;28;97320;-91
2023/09/12 09:11:14;;;;;;;4.88;2.70;;;27.10;76.00;;;26.23;52.02;99955.88;10350884;28;97996;-92
2023/09/12 09:16:21;;;;;;;4.30;2.78;;;27.40;75.00;;;26.51;52.04;99948.97;10327320;28;96589;-91
2023/09/12 09:21:33;;;;;;;6.80;2.95;;;27.60;74.90;;;26.64;51.20;99930.13;10332898;28;96652;-91
2023/09/12 09:27:00;;;;;;;3.67;2.78;;;27.90;74.10;;;26.90;50.76;99943.59;10356307;28;96698;-91
2023/09/12 09:32:16;;;;;;;5.18;3.00;;;28.00;73.40;;;27.15;50.52;99939.91;10328093;28;98795;-91
2023/09/12 09:37:20;;;;;;;5.30;3.03;;;28.30;72.90;;;27.58;48.96;99946.38;10341601;28;96514;-91
2023/09/12 09:42:24;;;;;;;5.95;2.58;;;28.60;71.90;;;27.84;47.62;99940.75;10380916;28;96406;-91
2023/09/12 09:47:28;;;;;;;5.57;3.13;;;28.90;71.00;;;28.28;46.05;99940.53;10339995;28;96610;-91
2023/09/12 09:52:31;;;;;;;6.20;2.55;;;29.30;69.60;;;28.69;44.13;99931.84;10360478;28;98234;-92
2023/09/12 09:57:38;;;;;;;4.85;2.88;;;29.70;68.00;;;29.11;42.16;99922.75;10354447;28;96498;-91
2023/09/12 10:02:43;;;;;;;4.53;2.50;;;30.20;66.90;;;29.60;40.40;99926.91;10344003;28;96803;-92
2023/09/12 10:07:50;;;;;;;3.97;2.10;;;30.60;65.30;;;29.91;38.91;99916.19;10352873;28;97147;-91
2023/09/12 10:12:58;;;;;;;5.38;2.47;;;30.80;62.80;;;30.21;38.83;99916.75;10347306;28;96615;-92
2023/09/12 10:18:09;;;;;;;3.08;1.73;;;31.00;62.00;;;30.29;37.53;99905.91;10349832;28;97721;-92
2023/09/12 10:23:44;;;;;;;3.40;1.92;;;31.20;61.20;;;30.51;36.25;99902.41;10361420;28;97283;-92
2023/09/12 10:28:50;;;;;;;3.47;2.00;;;31.40;59.80;;;30.68;34.24;99898.19;10378103;28;96592;-92
2023/09/12 10:33:54;;;;;;;3.90;1.80;;;31.60;57.20;;;30.72;33.76;99891.03;10340354;28;96492;-91
2023/09/12 10:38:59;;;;;;;4.40;2.03;;;31.60;56.80;;;30.87;33.40;99896.13;10360891;28;96459;-93
2023/09/12 10:44:09;;;;;;;3.45;2.00;;;31.80;55.50;;;31.09;33.11;99885.19;10361737;28;96690;-92
2023/09/12 10:49:15;;;;;;;2.47;1.80;;;32.00;55.00;;;31.24;32.29;99885.91;10329546;28;96667;-93
2023/09/12 10:54:45;;;;;;;3.17;1.80;;;32.20;53.50;;;31.30;31.09;99880.00;10324528;28;96712;-92
2023/09/12 11:00:10;;;;;;;5.22;1.98;;;32.20;51.50;;;31.49;31.37;99888.06;10340860;28;96509;-91
2023/09/12 11:05:29;;;;;;;3.13;1.90;;;32.40;51.60;;;31.54;30.81;99892.59;10370857;28;98003;-93
2023/09/12 11:10:33;;;;;;;5.25;2.03;;;32.50;51.30;;;31.65;30.70;99881.00;10348791;28;96546;-93
2023/09/12 11:15:39;;;;;;;4.35;2.08;;;32.50;52.30;;;31.72;30.94;99864.06;10334511;28;97120;-92
2023/09/12 11:20:59;;;;;;;3.95;2.35;;;32.70;51.30;;;31.89;31.06;99864.19;10343491;28;96521;-91
2023/09/12 11:26:07;;;;;;;3.17;2.25;;;32.80;51.30;;;32.05;30.68;99861.00;10362626;28;96620;-92
2023/09/12 11:31:11;;;;;;;3.90;2.20;;;32.90;51.10;;;32.07;30.54;99865.03;10342685;28;96531;-91
2023/09/12 11:36:15;;;;;;;2.53;2.15;;;33.00;50.70;;;32.09;30.30;99857.31;10344916;28;96715;-92
2023/09/12 11:41:41;;;;;;;3.83;2.33;;;33.00;50.50;;;32.17;30.33;99852.94;10337589;28;97611;-92
2023/09/12 11:46:49;;;;;;;3.33;2.00;;;33.00;50.50;;;32.28;30.83;99854.28;10368122;28;96649;-93
2023/09/12 11:51:54;;;;;;;3.92;2.10;;;33.20;51.00;;;32.47;30.59;99851.25;10358315;28;96652;-91
2023/09/12 11:56:59;;;;;;;2.53;1.90;;;33.30;50.90;;;32.60;29.98;99850.28;10355173;28;96724;-91
2023/09/12 12:02:09;;;;;;;3.78;1.95;;;33.50;50.40;;;32.61;29.59;99851.09;10346932;28;97267;-91
2023/09/12 12:07:13;;;;;;;4.47;1.83;;;33.50;49.90;;;32.56;29.56;99843.00;10298131;28;96542;-92
2023/09/12 12:12:17;;;;;;;6.28;2.40;;;33.50;49.30;;;32.60;29.18;99842.03;10345079;28;96598;-90
2023/09/12 12:17:22;;;;;;;2.92;2.10;;;33.50;49.50;;;32.64;29.46;99844.97;10336177;28;98743;-93
2023/09/12 12:22:26;;;;;;;3.47;2.15;;;33.50;49.40;;;32.64;29.26;99843.00;10317840;28;96665;-93
2023/09/12 12:27:30;;;;;;;4.60;1.90;;;33.50;49.80;;;32.52;29.41;99833.78;10357512;28;97324;-91
2023/09/12 12:32:33;;;;;;;2.22;1.70;;;33.40;49.60;;;32.35;29.36;99838.13;10356192;28;96557;-93
2023/09/12 12:37:37;;;;;;;4.57;2.03;;;33.20;49.00;;;32.19;28.93;99832.25;10354688;28;96591;-92
2023/09/12 12:42:43;;;;;;;4.95;1.90;;;33.00;48.80;;;32.06;29.68;99830.44;10350799;28;96866;-93
2023/09/12 12:48:01;;;;;;;3.45;1.70;;;32.90;49.30;;;32.00;30.23;99811.69;10339989;28;98077;-94
2023/09/12 12:53:04;;;;;;;9.30;2.10;;;32.80;49.60;;;31.90;29.90;99802.59;10308595;28;98120;-93
2023/09/12 12:58:08;;;;;;;3.15;1.90;;;32.90;49.50;;;31.83;29.56;99804.19;10315518;28;96750;-93
2023/09/12 13:03:12;;;;;;;5.10;2.05;;;32.80;48.90;;;31.68;29.54;99806.25;10343688;28;97289;-94
2023/09/12 13:08:15;;;;;;;4.80;2.05;;;32.60;48.70;;;31.52;29.59;99802.28;10332795;28;96567;-92
2023/09/12 13:13:19;;;;;;;3.72;1.80;;;32.50;49.00;;;31.46;29.53;99813.72;10345763;28;96663;-94
2023/09/12 13:18:23;;;;;;;3.67;1.92;;;32.30;48.90;;;31.41;29.56;99803.69;10344386;28;98452;-93
2023/09/12 13:23:27;;;;;;;4.30;2.35;;;32.30;48.90;;;31.33;29.65;99813.50;10359427;28;98642;-94
2023/09/12 13:28:31;;;;;;;3.97;1.52;;;32.20;49.00;;;31.24;29.67;99798.09;10361805;28;96726;-92
2023/09/12 13:33:35;;;;;;;3.10;1.63;;;32.10;48.70;;;31.20;30.53;99792.44;10342881;28;96605;-93
2023/09/12 13:38:39;;;;;;;3.78;2.10;;;32.00;49.10;;;31.20;30.71;99784.19;10340906;28;96702;-94
2023/09/12 13:43:47;;;;;;;5.60;1.83;;;32.00;49.40;;;31.23;30.57;99796.47;10360973;28;96538;-93
2023/09/12 13:48:50;;;;;;;3.30;1.75;;;32.10;49.40;;;31.25;29.64;99799.72;10344123;28;96720;-93
2023/09/12 13:53:53;;;;;;;3.63;1.83;;;32.00;48.80;;;31.23;29.44;99791.78;10349800;28;98675;-95
2023/09/12 13:58:57;;;;;;;5.40;1.80;;;32.00;48.60;;;31.20;29.41;99797.13;10337536;28;96414;-94
2023/09/12 14:04:03;;;;;;;3.67;1.67;;;32.00;48.60;;;31.18;29.61;99794.66;10391631;28;96513;-93
2023/09/12 14:09:08;;;;;;;5.38;2.03;;;32.00;48.60;;;31.15;29.51;99789.81;10351671;28;96539;-93
2023/09/12 14:14:11;;;;;;;5.47;1.85;;;32.00;48.60;;;31.14;29.74;99790.94;10388882;28;97362;-93
2023/09/12 14:19:19;;;;;;;5.13;1.60;;;32.00;48.60;;;31.14;30.06;99789.00;10412102;28;96088;-95
2023/09/12 14:24:23;;;;;;;6.15;1.77;;;32.00;48.70;;;31.16;29.57;99792.25;10406953;27;97367;-93
2023/09/12 14:29:30;;;;;;;5.40;1.50;;;32.10;48.60;;;31.23;29.59;99780.81;10404460;28;97391;-94
2023/09/12 14:34:34;;;;;;;3.80;1.48;;;32.20;48.50;;;31.25;29.38;99772.28;10355939;28;97336;-95
2023/09/12 14:39:37;;;;;;;5.68;1.80;;;32.20;48.30;;;31.25;29.58;99773.13;10336572;28;96925;-93
2023/09/12 14:44:41;;;;;;;3.17;1.55;;;32.20;48.20;;;31.23;29.33;99767.09;10343846;28;96817;-95
2023/09/12 14:49:45;;;;;;;4.20;1.80;;;32.20;48.10;;;31.27;29.83;99772.78;10322851;28;96502;-94
2023/09/12 14:54:54;;;;;;;5.13;1.52;;;32.30;48.10;;;31.27;29.70;99776.34;10347863;28;98381;-93
2023/09/12 14:59:58;;;;;;;3.13;1.67;;;32.40;48.30;;;31.33;29.89;99777.81;10336472;28;97659;-93
2023/09/12 15:05:03;;;;;;;5.97;1.70;;;32.50;48.40;;;31.46;29.72;99775.28;10359594;28;96537;-93
2023/09/12 15:10:08;;;;;;;5.70;1.60;;;32.80;48.20;;;31.68;29.06;99770.53;10378677;28;96490;-93
2023/09/12 15:15:12;;;;;;;4.38;1.70;;;33.10;47.80;;;32.00;29.45;99779.53;10341299;28;96577;-93
2023/09/12 15:20:16;;;;;;;2.58;1.70;;;33.50;47.60;;;32.26;28.82;99774.03;10344247;28;96478;-93
2023/09/12 15:25:20;;;;;;;5.40;1.70;;;33.80;47.20;;;32.57;28.74;99779.44;10358695;28;96797;-92
2023/09/12 15:30:24;;;;;;;4.53;1.55;;;34.20;47.30;;;32.83;28.39;99776.63;10340972;28;97364;-94
2023/09/12 15:35:28;;;;;;;4.82;1.77;;;34.50;47.00;;;32.97;27.69;99774.53;10342589;28;96549;-93
2023/09/12 15:40:33;;;;;;;2.95;1.70;;;34.60;46.60;;;32.96;27.23;99764.66;10342700;28;97190;-92
2023/09/12 15:45:37;;;;;;;2.83;1.58;;;34.60;46.10;;;32.95;28.07;99770.50;10339687;28;96585;-92
2023/09/12 15:50:55;;;;;;;3.58;1.40;;;34.60;46.40;;;32.81;28.16;99767.06;10360893;28;96699;-93
2023/09/12 15:55:59;;;;;;;1.90;1.40;;;34.40;47.20;;;32.47;28.33;99761.31;10334665;28;97332;-92
2023/09/12 16:01:04;;;;;;;3.72;1.55;;;34.00;46.80;;;32.09;29.07;99763.03;10341234;28;96634;-92
2023/09/12 16:06:08;;;;;;;4.93;2.05;;;33.40;47.20;;;31.60;30.77;99765.81;10341870;28;96557;-92
2023/09/12 16:11:12;;;;;;;4.45;2.05;;;32.80;48.10;;;31.07;32.71;99771.38;10356813;28;96974;-92
2023/09/12 16:16:16;;;;;;;2.70;1.55;;;32.10;49.20;;;30.48;33.94;99770.63;10336207;28;96819;-93
2023/09/12 16:21:19;;;;;;;3.85;1.73;;;31.40;50.30;;;29.81;34.88;99772.06;10337002;28;97030;-93
2023/09/12 16:26:23;;;;;;;3.60;1.75;;;30.70;51.40;;;29.22;35.95;99772.94;10375262;28;96882;-93
2023/09/12 16:31:27;;;;;;;3.75;1.35;;;30.00;52.30;;;28.71;37.11;99774.56;10334498;28;97443;-93
2023/09/12 16:36:31;;;;;;;3.05;1.40;;;29.50;52.90;;;28.26;37.71;99776.06;10328446;28;96612;-92
2023/09/12 16:41:36;;;;;;;3.38;1.17;;;29.20;53.40;;;27.93;37.98;99772.41;10344959;28;96410;-92
2023/09/12 16:46:40;;;;;;;4.53;1.52;;;28.80;53.70;;;27.56;38.10;99770.41;10357521;28;96707;-93
2023/09/12 16:51:44;;;;;;;3.35;1.40;;;28.50;54.10;;;27.25;38.94;99778.09;10357793;28;96441;-93
2023/09/12 16:56:48;;;;;;;7.55;2.25;;;28.30;54.40;;;26.98;38.85;99781.31;10354811;28;96537;-94
2023/09/12 17:01:51;;;;;;;3.55;1.50;;;28.00;54.70;;;26.75;39.92;99783.72;10356693;28;97651;-93
2023/09/12 17:06:55;;;;;;;5.50;1.90;;;27.70;55.20;;;26.44;40.95;99788.53;10356114;28;96678;-94
2023/09/12 17:11:59;;;;;;;4.32;1.80;;;27.40;56.00;;;26.10;41.96;99789.28;10356798;28;96575;-93
2023/09/12 17:17:03;;;;;;;438.42;33.30;;;27.00;56.70;;;25.70;43.50;99786.69;10314796;28;96454;-93
2023/09/12 17:22:07;;;;;;;5.63;1.52;;;26.60;57.70;;;25.33;43.88;99790.59;10300075;28;96668;-93
2023/09/12 17:27:11;;;;;;;4.85;1.50;;;26.20;58.40;;;24.94;44.77;99791.13;10349396;28;96557;-93
2023/09/12 17:32:16;;;;;;;6.80;1.75;;;25.90;58.90;;;24.75;45.05;99801.75;10358490;28;96530;-95
2023/09/12 17:37:20;;;;;;;5.57;1.70;;;25.60;59.30;;;24.54;45.63;99800.09;10355387;28;98085;-95
2023/09/12 17:42:25;;;;;;;4.10;1.70;;;25.40;59.70;;;24.30;46.89;99794.31;10357600;28;96535;-94
2023/09/12 17:47:29;;;;;;;7.32;2.40;;;25.20;60.40;;;24.07;47.67;99800.22;10355508;28;96661;-94
2023/09/12 17:52:33;;;;;;;9.30;2.50;;;25.00;61.10;;;23.81;49.49;99804.72;10356945;28;96532;-93
2023/09/12 17:57:37;;;;;;;5.88;2.70;;;24.70;62.20;;;23.54;49.45;99802.13;10331328;28;97739;-94
2023/09/12 18:02:40;;;;;;;3.67;2.20;;;24.40;62.60;;;23.40;49.28;99818.03;10313032;28;96541;-94
2023/09/12 18:07:44;;;;;;;5.57;2.38;;;24.30;62.70;;;23.29;50.66;99827.19;10360092;28;96848;-95
2023/09/12 18:12:48;;;;;;;3.38;1.92;;;24.20;63.50;;;23.06;51.15;99821.03;10365210;28;96493;-94
2023/09/12 18:17:51;;;;;;;4.28;2.00;;;23.90;64.40;;;22.91;52.15;99832.59;10320473;28;96521;-94
2023/09/12 18:22:55;;;;;;;3.33;1.40;;;23.80;65.00;;;22.80;52.12;99838.13;10337400;28;96557;-93
2023/09/12 18:27:59;;;;;;;4.13;1.48;;;23.70;64.80;;;22.75;52.09;99846.22;10347060;28;96402;-94
2023/09/12 18:33:03;;;;;;;6.47;2.13;;;23.60;64.90;;;22.71;52.52;99849.41;10337530;28;96937;-94
2023/09/12 18:38:06;;;;;;;3.40;1.75;;;23.60;65.30;;;22.63;52.44;99841.75;10354524;28;97779;-95
2023/09/12 18:43:10;;;;;;;2.70;1.42;;;23.50;65.60;;;22.54;52.13;99848.69;10327871;28;97108;-92
2023/09/12 18:48:13;;;;;;;4.28;1.40;;;23.40;65.60;;;22.47;52.78;99852.69;10351746;28;98781;-91
2023/09/12 18:53:20;;;;;;;5.55;1.65;;;23.30;65.80;;;22.37;52.72;99853.38;10331003;28;96657;-92
2023/09/12 18:58:24;;;;;;;6.30;1.92;;;23.30;66.60;;;22.30;52.54;99853.56;10341119;28;97076;-92
2023/09/12 19:03:28;;;;;;;3.30;1.50;;;23.20;66.00;;;22.26;52.62;99859.78;10357221;28;96714;-92
2023/09/12 19:08:36;;;;;;;3.38;1.58;;;23.10;66.20;;;22.20;53.08;99855.38;10337910;28;97429;-92
2023/09/12 19:13:41;;;;;;;4.97;1.80;;;23.10;66.50;;;22.10;53.61;99856.06;10343891;28;98415;-93
2023/09/12 19:18:47;;;;;;;2.63;1.17;;;23.00;66.90;;;22.02;53.04;99860.00;10352282;28;97160;-93
2023/09/12 19:23:50;;;;;;;4.72;1.50;;;22.90;66.90;;;21.94;53.87;99863.13;10343662;28;96612;-94
2023/09/12 19:28:54;;;;;;;5.28;1.55;;;22.80;67.10;;;21.87;53.70;99863.31;10340914;28;96592;-92
2023/09/12 19:33:58;;;;;;;3.95;1.70;;;22.80;67.30;;;21.82;53.64;99862.41;10353595;28;96597;-92
2023/09/12 19:39:02;;;;;;;4.57;2.00;;;22.80;67.40;;;21.80;54.38;99859.16;10343647;28;96549;-92
2023/09/12 19:44:08;;;;;;;5.90;1.70;;;22.70;67.70;;;21.69;54.63;99849.25;10353824;28;96643;-93
2023/09/12 19:49:12;;;;;;;4.97;1.98;;;22.70;68.00;;;21.67;55.67;99865.75;10330014;28;96787;-95
2023/09/12 19:54:18;;;;;;;3.72;1.80;;;22.60;68.50;;;21.51;56.61;99863.88;10339270;28;96921;-93
2023/09/12 19:59:21;;;;;;;5.93;2.17;;;22.40;69.10;;;21.34;58.00;99866.56;10353662;28;97214;-89
2023/09/12 20:04:28;;;;;;;6.28;2.30;;;22.30;69.70;;;21.14;58.89;99858.13;10338824;28;96763;-90
2023/09/12 20:09:31;;;;;;;5.50;2.22;;;22.10;70.40;;;21.06;58.83;99864.75;10319081;28;97208;-90
2023/09/12 20:14:35;;;;;;;5.50;1.83;;;22.00;70.70;;;20.97;59.28;99867.03;10281112;28;96694;-91
2023/09/12 20:19:39;;;;;;;5.43;2.33;;;21.90;71.10;;;20.84;59.87;99867.34;10285800;28;96808;-90
2023/09/12 20:24:42;;;;;;;5.85;2.35;;;21.80;71.50;;;20.78;59.82;99873.72;10290658;28;96667;-93
2023/09/12 20:29:47;;;;;;;6.82;2.00;;;21.70;71.70;;;20.68;60.43;99873.53;10288131;28;97285;-93
2023/09/12 20:34:50;;;;;;;6.55;2.83;;;21.60;72.30;;;20.57;60.97;99876.06;10289427;28;96594;-93
2023/09/12 20:39:54;;;;;;;4.07;1.80;;;21.50;72.50;;;20.48;60.99;99873.97;10273760;28;96808;-92
2023/09/12 20:44:58;;;;;;;5.57;1.90;;;21.40;72.70;;;20.45;61.64;99879.78;10271776;28;96532;-92
2023/09/12 20:50:05;;;;;;;3.65;1.90;;;21.40;73.00;;;20.35;62.10;99880.44;10304047;28;96564;-92
2023/09/12 20:55:10;;;;;;;5.18;1.92;;;21.30;73.40;;;20.21;62.18;99881.75;10290609;28;96624;-93
2023/09/12 21:00:14;;;;;;;7.90;1.80;;;21.20;73.70;;;20.13;63.26;99884.81;10287222;28;96881;-93
2023/09/12 21:05:18;;;;;;;2.95;1.90;;;21.10;74.40;;;20.03;63.18;99894.34;10270031;28;97460;-92
2023/09/12 21:10:22;;;;;;;4.22;1.80;;;20.90;74.50;;;19.92;63.69;99887.09;10288779;28;96913;-92